sensor_id;sensor_type;location;lat;lon;timestamp;P1;durP1;ratioP1;P2;durP2;ratioP2
26696;SDS011;14312;52.614;13.496;2022-11-23T11:41:28;15.27;;;13.57;;
26696;SDS011;14312;52.614;13.496;2022-11-23T11:44:23;12.27;;;10.68;;
26696;SDS011;14312;52.614;13.496;2022-11-23T11:53:16;11.48;;;10.00;;
26696;SDS011;14312;52.614;13.496;2022-11-23T11:56:26;10.55;;;9.18;;
26696;SDS011;14312;52.614;13.496;2022-11-23T11:59:21;9.07;;;8.18;;
26696;SDS011;14312;52.614;13.496;2022-11-23T12:02:19;9.32;;;8.18;;
26696;SDS011;14312;52.614;13.496;2022-11-23T12:05:26;9.52;;;8.52;;
26696;SDS011;14312;52.614;13.496;2022-11-23T12:11:28;9.68;;;8.65;;
26696;SDS011;14312;52.614;13.496;2022-11-23T12:14:14;8.85;;;7.97;;
26696;SDS011;14312;52.614;13.496;2022-11-23T12:35:51;8.98;;;7.78;;
26696;SDS011;14312;52.614;13.496;2022-11-23T12:39:02;8.57;;;7.45;;
26696;SDS011;14312;52.614;13.496;2022-11-23T12:42:03;8.60;;;7.57;;
26696;SDS011;14312;52.614;13.496;2022-11-23T12:54:09;8.75;;;7.78;;
26696;SDS011;14312;52.614;13.496;2022-11-23T12:57:12;9.02;;;8.13;;
26696;SDS011;14312;52.614;13.496;2022-11-23T13:03:17;8.23;;;7.40;;
26696;SDS011;14312;52.614;13.496;2022-11-23T13:09:36;7.25;;;6.53;;
26696;SDS011;14312;52.614;13.496;2022-11-23T13:12:32;7.97;;;7.18;;
26696;SDS011;14312;52.614;13.496;2022-11-23T13:21:41;10.27;;;8.20;;
26696;SDS011;14312;52.614;13.496;2022-11-23T13:24:34;9.13;;;7.82;;
26696;SDS011;14312;52.614;13.496;2022-11-23T13:30:33;8.80;;;7.90;;
26696;SDS011;14312;52.614;13.496;2022-11-23T13:33:24;8.32;;;7.35;;
26696;SDS011;14312;52.614;13.496;2022-11-23T13:36:12;9.13;;;7.15;;
26696;SDS011;14312;52.614;13.496;2022-11-23T13:42:36;8.45;;;7.50;;
26696;SDS011;14312;52.614;13.496;2022-11-23T13:45:23;9.18;;;7.70;;
26696;SDS011;14312;52.614;13.496;2022-11-23T13:48:14;8.10;;;7.07;;
26696;SDS011;14312;52.614;13.496;2022-11-23T13:51:03;7.60;;;6.80;;
26696;SDS011;14312;52.614;13.496;2022-11-23T13:53:50;7.75;;;6.95;;
26696;SDS011;14312;52.614;13.496;2022-11-23T13:56:44;8.52;;;7.10;;
26696;SDS011;14312;52.614;13.496;2022-11-23T13:59:31;9.68;;;8.68;;
26696;SDS011;14312;52.614;13.496;2022-11-23T14:02:26;9.95;;;8.85;;
26696;SDS011;14312;52.614;13.496;2022-11-23T14:06:19;10.27;;;8.68;;
26696;SDS011;14312;52.614;13.496;2022-11-23T14:08:34;12.02;;;9.73;;
26696;SDS011;14312;52.614;13.496;2022-11-23T14:11:22;9.23;;;8.13;;
26696;SDS011;14312;52.614;13.496;2022-11-23T14:14:14;9.70;;;8.70;;
26696;SDS011;14312;52.614;13.496;2022-11-23T14:17:09;12.57;;;10.00;;
26696;SDS011;14312;52.614;13.496;2022-11-23T14:36:02;12.18;;;10.10;;
26696;SDS011;14312;52.614;13.496;2022-11-23T14:42:16;11.48;;;9.50;;
26696;SDS011;14312;52.614;13.496;2022-11-23T14:45:13;11.93;;;9.68;;
26696;SDS011;14312;52.614;13.496;2022-11-23T14:48:19;14.00;;;10.68;;
26696;SDS011;14312;52.614;13.496;2022-11-23T14:51:09;12.48;;;9.93;;
26696;SDS011;14312;52.614;13.496;2022-11-23T14:53:58;13.85;;;11.32;;
26696;SDS011;14312;52.614;13.496;2022-11-23T14:56:47;12.75;;;10.52;;
26696;SDS011;14312;52.614;13.496;2022-11-23T14:59:36;14.52;;;11.48;;
26696;SDS011;14312;52.614;13.496;2022-11-23T15:02:38;14.25;;;11.93;;
26696;SDS011;14312;52.614;13.496;2022-11-23T15:05:27;14.00;;;11.05;;
26696;SDS011;14312;52.614;13.496;2022-11-23T15:08:18;14.00;;;11.35;;
26696;SDS011;14312;52.614;13.496;2022-11-23T15:11:09;16.33;;;12.30;;
26696;SDS011;14312;52.614;13.496;2022-11-23T15:14:15;14.45;;;11.35;;
26696;SDS011;14312;52.614;13.496;2022-11-23T15:17:15;14.25;;;11.02;;
26696;SDS011;14312;52.614;13.496;2022-11-23T15:20:03;13.68;;;10.70;;
26696;SDS011;14312;52.614;13.496;2022-11-23T15:22:49;15.50;;;11.23;;
26696;SDS011;14312;52.614;13.496;2022-11-23T15:25:35;13.82;;;11.30;;
26696;SDS011;14312;52.614;13.496;2022-11-23T15:28:23;12.65;;;10.55;;
26696;SDS011;14312;52.614;13.496;2022-11-23T15:31:18;12.40;;;10.02;;
26696;SDS011;14312;52.614;13.496;2022-11-23T15:34:14;14.73;;;10.75;;
26696;SDS011;14312;52.614;13.496;2022-11-23T15:37:02;12.70;;;9.95;;
26696;SDS011;14312;52.614;13.496;2022-11-23T15:39:48;14.48;;;10.45;;
26696;SDS011;14312;52.614;13.496;2022-11-23T15:42:36;15.27;;;10.40;;
26696;SDS011;14312;52.614;13.496;2022-11-23T15:48:30;18.10;;;12.23;;
26696;SDS011;14312;52.614;13.496;2022-11-23T15:51:33;14.50;;;10.05;;
26696;SDS011;14312;52.614;13.496;2022-11-23T15:54:24;12.95;;;9.70;;
26696;SDS011;14312;52.614;13.496;2022-11-23T15:57:19;14.63;;;10.32;;
26696;SDS011;14312;52.614;13.496;2022-11-23T16:00:20;14.90;;;11.60;;
26696;SDS011;14312;52.614;13.496;2022-11-23T16:03:24;15.33;;;10.67;;
26696;SDS011;14312;52.614;13.496;2022-11-23T16:06:17;17.70;;;11.27;;
26696;SDS011;14312;52.614;13.496;2022-11-23T16:12:22;14.55;;;10.25;;
26696;SDS011;14312;52.614;13.496;2022-11-23T16:18:25;16.20;;;12.18;;
26696;SDS011;14312;52.614;13.496;2022-11-23T16:21:19;18.45;;;12.10;;
26696;SDS011;14312;52.614;13.496;2022-11-23T16:24:14;15.27;;;10.85;;
26696;SDS011;14312;52.614;13.496;2022-11-23T16:27:12;15.60;;;11.87;;
26696;SDS011;14312;52.614;13.496;2022-11-23T16:30:04;18.45;;;14.15;;
26696;SDS011;14312;52.614;13.496;2022-11-23T16:32:54;16.97;;;12.83;;
26696;SDS011;14312;52.614;13.496;2022-11-23T16:35:40;17.23;;;11.95;;
26696;SDS011;14312;52.614;13.496;2022-11-23T16:38:28;18.48;;;12.27;;
26696;SDS011;14312;52.614;13.496;2022-11-23T16:41:14;16.10;;;12.27;;
26696;SDS011;14312;52.614;13.496;2022-11-23T16:44:00;15.70;;;12.27;;
26696;SDS011;14312;52.614;13.496;2022-11-23T16:46:46;18.10;;;13.68;;
26696;SDS011;14312;52.614;13.496;2022-11-23T16:49:32;17.80;;;13.60;;
26696;SDS011;14312;52.614;13.496;2022-11-23T16:52:19;15.53;;;11.93;;
26696;SDS011;14312;52.614;13.496;2022-11-23T16:55:06;16.98;;;12.88;;
26696;SDS011;14312;52.614;13.496;2022-11-23T16:57:54;16.13;;;12.30;;
26696;SDS011;14312;52.614;13.496;2022-11-23T17:00:41;16.33;;;11.90;;
26696;SDS011;14312;52.614;13.496;2022-11-23T17:03:27;16.02;;;12.15;;
26696;SDS011;14312;52.614;13.496;2022-11-23T17:06:13;16.67;;;12.82;;
26696;SDS011;14312;52.614;13.496;2022-11-23T17:09:01;15.15;;;12.30;;
26696;SDS011;14312;52.614;13.496;2022-11-23T17:11:47;17.38;;;12.63;;
26696;SDS011;14312;52.614;13.496;2022-11-23T17:14:37;17.53;;;12.40;;
26696;SDS011;14312;52.614;13.496;2022-11-23T17:17:23;16.33;;;12.68;;
26696;SDS011;14312;52.614;13.496;2022-11-23T17:20:12;17.80;;;12.73;;
26696;SDS011;14312;52.614;13.496;2022-11-23T17:22:58;17.75;;;12.50;;
26696;SDS011;14312;52.614;13.496;2022-11-23T17:25:45;18.27;;;13.05;;
26696;SDS011;14312;52.614;13.496;2022-11-23T17:28:34;17.70;;;12.95;;
26696;SDS011;14312;52.614;13.496;2022-11-23T17:31:20;20.15;;;13.30;;
26696;SDS011;14312;52.614;13.496;2022-11-23T17:34:07;17.67;;;13.43;;
26696;SDS011;14312;52.614;13.496;2022-11-23T17:36:53;16.27;;;12.52;;
26696;SDS011;14312;52.614;13.496;2022-11-23T17:39:39;17.85;;;13.32;;
26696;SDS011;14312;52.614;13.496;2022-11-23T17:42:25;17.37;;;12.43;;
26696;SDS011;14312;52.614;13.496;2022-11-23T17:45:11;16.60;;;12.50;;
26696;SDS011;14312;52.614;13.496;2022-11-23T17:47:57;16.77;;;13.33;;
26696;SDS011;14312;52.614;13.496;2022-11-23T17:50:43;16.75;;;13.30;;
26696;SDS011;14312;52.614;13.496;2022-11-23T17:53:31;17.50;;;13.90;;
26696;SDS011;14312;52.614;13.496;2022-11-23T17:56:21;15.75;;;12.35;;
26696;SDS011;14312;52.614;13.496;2022-11-23T17:59:09;17.80;;;12.17;;
26696;SDS011;14312;52.614;13.496;2022-11-23T18:01:55;16.37;;;12.50;;
26696;SDS011;14312;52.614;13.496;2022-11-23T18:04:42;17.80;;;12.85;;
26696;SDS011;14312;52.614;13.496;2022-11-23T18:07:28;15.73;;;12.10;;
26696;SDS011;14312;52.614;13.496;2022-11-23T18:10:15;14.53;;;11.83;;
26696;SDS011;14312;52.614;13.496;2022-11-23T18:13:02;15.32;;;11.05;;
26696;SDS011;14312;52.614;13.496;2022-11-23T18:15:47;13.93;;;10.70;;
26696;SDS011;14312;52.614;13.496;2022-11-23T18:18:33;13.68;;;10.80;;
26696;SDS011;14312;52.614;13.496;2022-11-23T18:21:19;14.43;;;11.03;;
26696;SDS011;14312;52.614;13.496;2022-11-23T18:24:05;15.35;;;12.35;;
26696;SDS011;14312;52.614;13.496;2022-11-23T18:26:53;13.75;;;11.13;;
26696;SDS011;14312;52.614;13.496;2022-11-23T18:29:39;14.97;;;11.93;;
26696;SDS011;14312;52.614;13.496;2022-11-23T18:32:25;16.65;;;12.60;;
26696;SDS011;14312;52.614;13.496;2022-11-23T18:35:10;16.38;;;13.10;;
26696;SDS011;14312;52.614;13.496;2022-11-23T18:37:56;17.55;;;13.05;;
26696;SDS011;14312;52.614;13.496;2022-11-23T18:40:42;20.10;;;14.80;;
26696;SDS011;14312;52.614;13.496;2022-11-23T18:43:28;18.38;;;14.80;;
26696;SDS011;14312;52.614;13.496;2022-11-23T18:46:14;17.63;;;14.27;;
26696;SDS011;14312;52.614;13.496;2022-11-23T18:49:03;19.52;;;15.05;;
26696;SDS011;14312;52.614;13.496;2022-11-23T18:51:49;18.65;;;13.77;;
26696;SDS011;14312;52.614;13.496;2022-11-23T18:54:35;20.87;;;15.87;;
26696;SDS011;14312;52.614;13.496;2022-11-23T18:57:21;19.77;;;15.20;;
26696;SDS011;14312;52.614;13.496;2022-11-23T19:00:09;18.80;;;14.00;;
26696;SDS011;14312;52.614;13.496;2022-11-23T19:02:58;19.33;;;15.03;;
26696;SDS011;14312;52.614;13.496;2022-11-23T19:05:46;18.92;;;14.27;;
26696;SDS011;14312;52.614;13.496;2022-11-23T19:08:36;18.38;;;13.63;;
26696;SDS011;14312;52.614;13.496;2022-11-23T19:11:24;16.25;;;12.73;;
26696;SDS011;14312;52.614;13.496;2022-11-23T19:14:11;17.17;;;12.60;;
26696;SDS011;14312;52.614;13.496;2022-11-23T19:16:57;17.05;;;13.55;;
26696;SDS011;14312;52.614;13.496;2022-11-23T19:19:43;20.73;;;15.00;;
26696;SDS011;14312;52.614;13.496;2022-11-23T19:22:30;21.00;;;15.53;;
26696;SDS011;14312;52.614;13.496;2022-11-23T19:25:17;19.50;;;15.53;;
26696;SDS011;14312;52.614;13.496;2022-11-23T19:28:04;17.77;;;14.07;;
26696;SDS011;14312;52.614;13.496;2022-11-23T19:30:54;20.52;;;15.18;;
26696;SDS011;14312;52.614;13.496;2022-11-23T19:33:44;17.17;;;13.57;;
26696;SDS011;14312;52.614;13.496;2022-11-23T19:36:32;17.27;;;13.53;;
26696;SDS011;14312;52.614;13.496;2022-11-23T19:39:20;18.13;;;13.57;;
26696;SDS011;14312;52.614;13.496;2022-11-23T19:42:11;19.93;;;15.43;;
26696;SDS011;14312;52.614;13.496;2022-11-23T19:44:57;19.10;;;15.07;;
26696;SDS011;14312;52.614;13.496;2022-11-23T19:47:43;20.83;;;15.75;;
26696;SDS011;14312;52.614;13.496;2022-11-23T19:50:29;19.23;;;15.13;;
26696;SDS011;14312;52.614;13.496;2022-11-23T19:53:20;22.15;;;16.42;;
26696;SDS011;14312;52.614;13.496;2022-11-23T19:56:11;23.02;;;17.10;;
26696;SDS011;14312;52.614;13.496;2022-11-23T19:59:01;22.52;;;15.88;;
26696;SDS011;14312;52.614;13.496;2022-11-23T20:01:47;19.95;;;15.43;;
26696;SDS011;14312;52.614;13.496;2022-11-23T20:04:33;19.93;;;14.93;;
26696;SDS011;14312;52.614;13.496;2022-11-23T20:07:19;20.77;;;15.33;;
26696;SDS011;14312;52.614;13.496;2022-11-23T20:10:05;18.77;;;14.60;;
26696;SDS011;14312;52.614;13.496;2022-11-23T20:12:52;19.27;;;14.13;;
26696;SDS011;14312;52.614;13.496;2022-11-23T20:15:37;20.20;;;14.10;;
26696;SDS011;14312;52.614;13.496;2022-11-23T20:18:25;16.90;;;13.27;;
26696;SDS011;14312;52.614;13.496;2022-11-23T20:21:14;23.43;;;16.47;;
26696;SDS011;14312;52.614;13.496;2022-11-23T20:24:03;20.38;;;15.45;;
26696;SDS011;14312;52.614;13.496;2022-11-23T20:26:51;22.92;;;15.77;;
26696;SDS011;14312;52.614;13.496;2022-11-23T20:29:36;21.30;;;14.70;;
26696;SDS011;14312;52.614;13.496;2022-11-23T20:32:22;19.10;;;14.02;;
26696;SDS011;14312;52.614;13.496;2022-11-23T20:35:08;19.52;;;14.48;;
26696;SDS011;14312;52.614;13.496;2022-11-23T20:37:58;18.87;;;14.43;;
26696;SDS011;14312;52.614;13.496;2022-11-23T20:40:44;19.08;;;13.27;;
26696;SDS011;14312;52.614;13.496;2022-11-23T20:43:30;19.17;;;14.13;;
26696;SDS011;14312;52.614;13.496;2022-11-23T20:46:16;21.67;;;16.10;;
26696;SDS011;14312;52.614;13.496;2022-11-23T20:49:03;20.10;;;15.27;;
26696;SDS011;14312;52.614;13.496;2022-11-23T20:51:49;21.97;;;16.33;;
26696;SDS011;14312;52.614;13.496;2022-11-23T20:54:37;24.07;;;17.97;;
26696;SDS011;14312;52.614;13.496;2022-11-23T20:57:23;22.60;;;17.97;;
26696;SDS011;14312;52.614;13.496;2022-11-23T21:00:09;22.73;;;16.97;;
26696;SDS011;14312;52.614;13.496;2022-11-23T21:02:55;23.43;;;17.47;;
26696;SDS011;14312;52.614;13.496;2022-11-23T21:05:41;21.83;;;15.83;;
26696;SDS011;14312;52.614;13.496;2022-11-23T21:08:27;22.48;;;16.55;;
26696;SDS011;14312;52.614;13.496;2022-11-23T21:11:16;24.67;;;17.57;;
26696;SDS011;14312;52.614;13.496;2022-11-23T21:14:23;24.73;;;17.97;;
26696;SDS011;14312;52.614;13.496;2022-11-23T21:17:11;23.57;;;17.90;;
26696;SDS011;14312;52.614;13.496;2022-11-23T21:19:57;26.85;;;19.42;;
26696;SDS011;14312;52.614;13.496;2022-11-23T21:22:43;24.52;;;17.23;;
26696;SDS011;14312;52.614;13.496;2022-11-23T21:25:33;27.03;;;18.27;;
26696;SDS011;14312;52.614;13.496;2022-11-23T21:28:19;25.83;;;18.98;;
26696;SDS011;14312;52.614;13.496;2022-11-23T21:31:06;25.75;;;18.60;;
26696;SDS011;14312;52.614;13.496;2022-11-23T21:33:52;28.83;;;20.35;;
26696;SDS011;14312;52.614;13.496;2022-11-23T21:36:39;26.55;;;18.85;;
26696;SDS011;14312;52.614;13.496;2022-11-23T21:39:25;24.37;;;18.33;;
26696;SDS011;14312;52.614;13.496;2022-11-23T21:42:11;25.23;;;18.37;;
26696;SDS011;14312;52.614;13.496;2022-11-23T21:45:01;21.70;;;15.98;;
26696;SDS011;14312;52.614;13.496;2022-11-23T21:47:47;21.10;;;15.50;;
26696;SDS011;14312;52.614;13.496;2022-11-23T21:50:33;20.73;;;15.57;;
26696;SDS011;14312;52.614;13.496;2022-11-23T21:53:24;21.37;;;15.87;;
26696;SDS011;14312;52.614;13.496;2022-11-23T21:56:11;21.37;;;14.97;;
26696;SDS011;14312;52.614;13.496;2022-11-23T21:58:59;20.87;;;15.43;;
26696;SDS011;14312;52.614;13.496;2022-11-23T22:01:45;21.30;;;15.50;;
26696;SDS011;14312;52.614;13.496;2022-11-23T22:04:31;21.63;;;15.53;;
26696;SDS011;14312;52.614;13.496;2022-11-23T22:07:17;21.93;;;15.37;;
26696;SDS011;14312;52.614;13.496;2022-11-23T22:10:06;20.67;;;14.93;;
26696;SDS011;14312;52.614;13.496;2022-11-23T22:12:53;22.13;;;14.57;;
26696;SDS011;14312;52.614;13.496;2022-11-23T22:15:39;20.00;;;14.55;;
26696;SDS011;14312;52.614;13.496;2022-11-23T22:18:26;20.15;;;15.18;;
26696;SDS011;14312;52.614;13.496;2022-11-23T22:21:12;21.25;;;14.10;;
26696;SDS011;14312;52.614;13.496;2022-11-23T22:23:59;19.80;;;14.35;;
26696;SDS011;14312;52.614;13.496;2022-11-23T22:26:45;20.73;;;14.27;;
26696;SDS011;14312;52.614;13.496;2022-11-23T22:29:32;21.87;;;15.33;;
26696;SDS011;14312;52.614;13.496;2022-11-23T22:32:18;25.27;;;16.63;;
26696;SDS011;14312;52.614;13.496;2022-11-23T22:35:04;26.23;;;17.08;;
26696;SDS011;14312;52.614;13.496;2022-11-23T22:37:51;26.73;;;19.23;;
26696;SDS011;14312;52.614;13.496;2022-11-23T22:40:37;28.75;;;19.42;;
26696;SDS011;14312;52.614;13.496;2022-11-23T22:43:24;29.27;;;21.53;;
26696;SDS011;14312;52.614;13.496;2022-11-23T22:46:13;31.87;;;21.67;;
26696;SDS011;14312;52.614;13.496;2022-11-23T22:49:04;31.20;;;22.58;;
26696;SDS011;14312;52.614;13.496;2022-11-23T22:51:54;30.07;;;22.17;;
26696;SDS011;14312;52.614;13.496;2022-11-23T22:54:40;33.78;;;23.05;;
26696;SDS011;14312;52.614;13.496;2022-11-23T22:57:28;32.27;;;23.70;;
26696;SDS011;14312;52.614;13.496;2022-11-23T23:00:15;36.38;;;23.77;;
26696;SDS011;14312;52.614;13.496;2022-11-23T23:03:01;35.47;;;24.17;;
26696;SDS011;14312;52.614;13.496;2022-11-23T23:05:53;28.10;;;19.43;;
26696;SDS011;14312;52.614;13.496;2022-11-23T23:08:43;27.35;;;18.27;;
26696;SDS011;14312;52.614;13.496;2022-11-23T23:11:30;26.93;;;18.93;;
26696;SDS011;14312;52.614;13.496;2022-11-23T23:14:17;22.93;;;17.90;;
26696;SDS011;14312;52.614;13.496;2022-11-23T23:17:04;26.27;;;17.98;;
26696;SDS011;14312;52.614;13.496;2022-11-23T23:19:55;26.33;;;18.83;;
26696;SDS011;14312;52.614;13.496;2022-11-23T23:22:41;26.67;;;18.08;;
26696;SDS011;14312;52.614;13.496;2022-11-23T23:25:27;23.98;;;17.00;;
26696;SDS011;14312;52.614;13.496;2022-11-23T23:28:14;26.42;;;18.30;;
26696;SDS011;14312;52.614;13.496;2022-11-23T23:31:01;27.90;;;19.10;;
26696;SDS011;14312;52.614;13.496;2022-11-23T23:33:48;32.33;;;19.27;;
26696;SDS011;14312;52.614;13.496;2022-11-23T23:36:35;31.50;;;21.17;;
26696;SDS011;14312;52.614;13.496;2022-11-23T23:39:21;26.70;;;19.38;;
26696;SDS011;14312;52.614;13.496;2022-11-23T23:42:07;26.65;;;19.83;;
26696;SDS011;14312;52.614;13.496;2022-11-23T23:44:53;27.83;;;17.67;;
26696;SDS011;14312;52.614;13.496;2022-11-23T23:47:39;30.05;;;19.27;;
26696;SDS011;14312;52.614;13.496;2022-11-23T23:50:25;34.55;;;23.50;;
26696;SDS011;14312;52.614;13.496;2022-11-23T23:53:11;33.63;;;22.70;;
26696;SDS011;14312;52.614;13.496;2022-11-23T23:55:57;30.35;;;20.10;;
26696;SDS011;14312;52.614;13.496;2022-11-23T23:58:46;27.77;;;19.38;;
